Time;durP1;ratioP1;P1;durP2;ratioP2;P2;SDS_P1;SDS_P2;PMS_P1;PMS_P2;Temp;Humidity;BMP_temperature;BMP_pressure;BME280_temperature;BME280_humidity;BME280_pressure;Samples;Min_cycle;Max_cycle;Signal;HPM_P1;HPM_P2
2022/04/22 00:00:45;;;;;;;5.53;4.03;;;;;;;;;;5035045;28;20028;-83
2022/04/22 00:03:10;;;;;;;6.88;4.35;;;;;;;;;;5029706;28;20014;-82
2022/04/22 00:05:36;;;;;;;5.70;4.38;;;;;;;;;;5030811;28;20041;-81
2022/04/22 00:08:02;;;;;;;7.60;4.43;;;;;;;;;;5036822;28;20017;-81
2022/04/22 00:10:28;;;;;;;7.80;4.22;;;;;;;;;;5037275;28;20029;-81
2022/04/22 00:12:54;;;;;;;8.57;4.80;;;;;;;;;;5041750;28;20026;-81
2022/04/22 00:15:20;;;;;;;5.53;4.38;;;;;;;;;;5035940;28;20045;-81
2022/04/22 00:17:46;;;;;;;4.05;3.38;;;;;;;;;;5042696;28;20021;-82
2022/04/22 00:20:12;;;;;;;6.80;4.18;;;;;;;;;;5038841;28;20033;-81
2022/04/22 00:22:39;;;;;;;5.70;4.13;;;;;;;;;;5036319;28;20025;-82
2022/04/22 00:25:10;;;;;;;8.43;4.72;;;;;;;;;;5033209;28;20025;-83
2022/04/22 00:27:37;;;;;;;9.55;4.68;;;;;;;;;;5046774;28;20021;-82
2022/04/22 00:30:09;;;;;;;7.00;5.05;;;;;;;;;;5046927;28;20484;-82
2022/04/22 00:32:35;;;;;;;5.70;4.35;;;;;;;;;;5053151;28;20043;-83
2022/04/22 00:35:03;;;;;;;6.00;4.45;;;;;;;;;;5053323;28;20017;-82
2022/04/22 00:37:29;;;;;;;7.22;4.75;;;;;;;;;;5049158;28;20033;-82
2022/04/22 00:39:54;;;;;;;6.43;4.20;;;;;;;;;;5050464;28;20041;-82
2022/04/22 00:42:20;;;;;;;6.13;4.15;;;;;;;;;;5052174;28;20035;-81
2022/04/22 00:44:46;;;;;;;8.43;4.80;;;;;;;;;;5035113;28;20021;-81
2022/04/22 00:47:14;;;;;;;10.85;4.78;;;;;;;;;;5030121;28;20029;-81
2022/04/22 00:49:40;;;;;;;6.07;4.43;;;;;;;;;;5039891;28;20040;-81
2022/04/22 00:52:06;;;;;;;7.20;4.40;;;;;;;;;;5029233;28;20025;-81
2022/04/22 00:54:32;;;;;;;8.23;4.47;;;;;;;;;;5055398;28;20081;-82
2022/04/22 00:56:58;;;;;;;7.65;4.55;;;;;;;;;;5048456;28;20017;-81
2022/04/22 00:59:24;;;;;;;6.70;4.60;;;;;;;;;;5047976;28;20108;-81
2022/04/22 01:01:49;;;;;;;6.85;5.03;;;;;;;;;;5047426;28;20108;-82
2022/04/22 01:09:49;;;;;;;8.23;5.45;;;;;;;;;;5046209;28;20074;-81
2022/04/22 01:12:18;;;;;;;6.70;4.85;;;;;;;;;;5058368;28;20031;-81
2022/04/22 01:14:45;;;;;;;8.18;5.40;;;;;;;;;;5052611;28;20037;-81
2022/04/22 01:17:11;;;;;;;10.55;5.32;;;;;;;;;;5048059;28;20031;-82
2022/04/22 01:19:36;;;;;;;8.15;5.25;;;;;;;;;;5034527;28;20048;-81
2022/04/22 01:22:02;;;;;;;7.65;5.40;;;;;;;;;;5059040;28;20033;-81
2022/04/22 01:24:28;;;;;;;9.15;6.15;;;;;;;;;;5053776;28;20028;-81
2022/04/22 01:26:56;;;;;;;10.32;6.07;;;;;;;;;;5061077;28;20025;-81
2022/04/22 01:29:22;;;;;;;11.43;6.25;;;;;;;;;;5048064;28;20071;-81
2022/04/22 01:31:47;;;;;;;8.27;5.85;;;;;;;;;;5048057;28;20052;-81
2022/04/22 01:34:13;;;;;;;11.57;6.53;;;;;;;;;;5046134;28;20043;-81
2022/04/22 01:36:39;;;;;;;8.90;5.70;;;;;;;;;;5047363;28;20025;-81
2022/04/22 01:39:04;;;;;;;8.07;5.65;;;;;;;;;;5047330;28;20025;-81
2022/04/22 01:41:30;;;;;;;9.65;6.03;;;;;;;;;;5049015;28;20033;-81
2022/04/22 01:43:56;;;;;;;11.82;5.70;;;;;;;;;;5055060;28;20021;-81
2022/04/22 01:46:21;;;;;;;9.48;6.03;;;;;;;;;;5046060;28;20052;-81
2022/04/22 01:48:47;;;;;;;11.07;5.97;;;;;;;;;;5028550;28;20067;-81
2022/04/22 01:51:12;;;;;;;11.23;6.00;;;;;;;;;;5046959;28;20029;-81
2022/04/22 01:53:38;;;;;;;9.10;5.82;;;;;;;;;;5053195;28;20028;-81
2022/04/22 01:56:04;;;;;;;11.23;6.85;;;;;;;;;;5031357;28;20052;-80
2022/04/22 01:58:29;;;;;;;10.48;6.10;;;;;;;;;;5029226;28;20018;-81
2022/04/22 02:00:55;;;;;;;11.10;6.50;;;;;;;;;;5047056;28;20025;-83
2022/04/22 02:03:20;;;;;;;9.90;6.82;;;;;;;;;;5046552;28;20085;-82
2022/04/22 02:05:46;;;;;;;11.43;7.28;;;;;;;;;;5047140;28;20364;-80
2022/04/22 02:08:12;;;;;;;16.30;7.53;;;;;;;;;;5031724;28;20051;-81
2022/04/22 02:10:38;;;;;;;16.98;6.75;;;;;;;;;;5051132;28;20022;-82
2022/04/22 02:13:05;;;;;;;11.75;7.18;;;;;;;;;;5044694;28;20035;-80
2022/04/22 02:15:30;;;;;;;11.57;7.57;;;;;;;;;;5048211;28;20037;-81
2022/04/22 02:17:56;;;;;;;12.88;7.38;;;;;;;;;;5046696;28;20036;-81
2022/04/22 02:20:22;;;;;;;14.77;8.20;;;;;;;;;;5046706;28;20021;-81
2022/04/22 02:22:48;;;;;;;12.45;8.07;;;;;;;;;;5046888;28;20033;-81
2022/04/22 02:25:13;;;;;;;13.90;7.47;;;;;;;;;;5046172;28;20029;-81
2022/04/22 02:30:23;;;;;;;19.20;7.93;;;;;;;;;;5046637;28;20170;-80
2022/04/22 02:32:48;;;;;;;12.70;8.05;;;;;;;;;;5044349;28;20017;-80
2022/04/22 02:35:14;;;;;;;14.02;8.50;;;;;;;;;;5050486;28;20029;-80
2022/04/22 02:37:40;;;;;;;16.52;9.18;;;;;;;;;;5059798;28;20367;-81
2022/04/22 02:40:05;;;;;;;14.43;7.93;;;;;;;;;;5048245;28;20025;-81
2022/04/22 02:45:27;;;;;;;42.35;9.23;;;;;;;;;;5068765;28;20076;-81
2022/04/22 02:47:56;;;;;;;14.32;8.70;;;;;;;;;;5060303;28;20021;-81
2022/04/22 02:50:22;;;;;;;11.93;8.30;;;;;;;;;;5056113;28;20033;-81
2022/04/22 02:52:47;;;;;;;13.90;8.88;;;;;;;;;;5059754;28;20029;-81
2022/04/22 02:55:13;;;;;;;12.73;8.07;;;;;;;;;;5047674;28;20040;-81
2022/04/22 02:57:38;;;;;;;14.55;9.15;;;;;;;;;;5048226;28;20025;-81
2022/04/22 03:00:04;;;;;;;12.23;8.70;;;;;;;;;;5047495;28;20411;-81
2022/04/22 03:02:29;;;;;;;14.00;8.82;;;;;;;;;;5046766;28;20032;-81
2022/04/22 03:04:55;;;;;;;13.00;8.05;;;;;;;;;;5045555;28;20084;-81
2022/04/22 03:07:20;;;;;;;13.45;8.32;;;;;;;;;;5037681;28;20040;-81
2022/04/22 03:09:46;;;;;;;18.90;9.70;;;;;;;;;;5045618;28;20100;-83
2022/04/22 03:12:13;;;;;;;15.82;10.18;;;;;;;;;;5056385;28;20021;-81
2022/04/22 03:14:39;;;;;;;17.13;10.82;;;;;;;;;;5051117;28;20063;-82
2022/04/22 03:17:05;;;;;;;19.13;10.07;;;;;;;;;;5047397;28;20040;-82
2022/04/22 03:19:31;;;;;;;18.17;10.10;;;;;;;;;;5057014;28;20032;-82
2022/04/22 03:21:57;;;;;;;16.92;9.20;;;;;;;;;;5066197;28;20025;-82
2022/04/22 03:24:23;;;;;;;14.38;10.02;;;;;;;;;;5054910;28;20439;-82
2022/04/22 03:26:48;;;;;;;16.52;9.30;;;;;;;;;;5045348;28;20025;-82
2022/04/22 03:29:13;;;;;;;16.98;9.68;;;;;;;;;;5045874;28;20052;-82
2022/04/22 03:31:39;;;;;;;16.98;9.15;;;;;;;;;;5045609;28;20029;-82
2022/04/22 03:34:05;;;;;;;13.50;8.98;;;;;;;;;;5027227;28;20025;-82
2022/04/22 03:36:30;;;;;;;14.15;9.05;;;;;;;;;;5048280;28;20039;-81
2022/04/22 03:38:56;;;;;;;16.75;9.63;;;;;;;;;;5055158;28;20160;-80
2022/04/22 03:41:21;;;;;;;16.80;8.90;;;;;;;;;;5036624;28;20021;-82
2022/04/22 03:43:46;;;;;;;19.70;9.98;;;;;;;;;;5053988;28;20036;-81
2022/04/22 03:46:12;;;;;;;16.63;9.57;;;;;;;;;;5035019;28;20033;-81
2022/04/22 03:48:37;;;;;;;19.45;10.60;;;;;;;;;;5048217;28;20029;-81
2022/04/22 03:51:02;;;;;;;15.38;9.65;;;;;;;;;;5050935;28;20160;-80
2022/04/22 03:53:28;;;;;;;15.40;9.75;;;;;;;;;;5028461;28;20025;-81
2022/04/22 03:55:53;;;;;;;19.90;10.00;;;;;;;;;;5057197;28;20037;-81
2022/04/22 03:58:19;;;;;;;14.82;9.40;;;;;;;;;;5056017;28;20056;-81
2022/04/22 04:00:50;;;;;;;16.88;9.82;;;;;;;;;;5065587;28;20021;-81
2022/04/22 04:03:18;;;;;;;14.20;8.40;;;;;;;;;;5053454;28;20026;-81
2022/04/22 04:05:49;;;;;;;16.52;9.60;;;;;;;;;;5045020;28;20068;-80
2022/04/22 04:08:16;;;;;;;16.88;9.95;;;;;;;;;;5045837;28;20619;-80
2022/04/22 04:16:10;;;;;;;12.90;8.35;;;;;;;;;;5044556;28;20028;-82
2022/04/22 04:18:38;;;;;;;16.23;9.90;;;;;;;;;;5052816;28;20053;-82
2022/04/22 04:23:49;;;;;;;17.95;9.05;;;;;;;;;;5064675;28;20088;-81
2022/04/22 04:26:15;;;;;;;16.35;9.75;;;;;;;;;;5065146;28;20029;-81
2022/04/22 04:28:41;;;;;;;20.88;10.98;;;;;;;;;;5057791;28;20014;-80
2022/04/22 04:31:08;;;;;;;15.38;10.43;;;;;;;;;;5057273;28;20063;-81
2022/04/22 04:33:34;;;;;;;15.15;9.52;;;;;;;;;;5048521;28;20021;-81
2022/04/22 04:35:59;;;;;;;17.23;10.43;;;;;;;;;;5040689;28;21169;-82
2022/04/22 04:38:26;;;;;;;18.40;10.60;;;;;;;;;;5037805;28;20045;-82
2022/04/22 04:40:51;;;;;;;20.30;11.35;;;;;;;;;;5050592;28;20018;-81
2022/04/22 04:43:18;;;;;;;17.48;10.90;;;;;;;;;;5036914;28;20135;-81
2022/04/22 04:45:44;;;;;;;17.20;11.35;;;;;;;;;;5038404;28;20032;-81
2022/04/22 04:48:09;;;;;;;19.70;10.65;;;;;;;;;;5020378;28;20026;-81
2022/04/22 04:50:35;;;;;;;21.83;12.05;;;;;;;;;;5021442;28;20056;-81
2022/04/22 04:53:00;;;;;;;18.80;11.95;;;;;;;;;;5038207;28;20021;-82
2022/04/22 04:55:27;;;;;;;20.73;10.98;;;;;;;;;;5038562;28;20434;-81
2022/04/22 04:57:52;;;;;;;23.33;13.25;;;;;;;;;;5038621;28;20034;-82
2022/04/22 05:00:21;;;;;;;20.83;12.25;;;;;;;;;;5038609;28;20060;-82
2022/04/22 05:02:46;;;;;;;23.75;13.90;;;;;;;;;;5037902;28;20446;-82
2022/04/22 05:05:12;;;;;;;27.65;13.27;;;;;;;;;;5019061;28;20125;-81
2022/04/22 05:07:50;;;;;;;23.42;13.00;;;;;;;;;;5047931;28;20036;-82
2022/04/22 05:10:18;;;;;;;27.83;14.35;;;;;;;;;;5038606;28;20104;-81
2022/04/22 05:12:44;;;;;;;27.25;14.80;;;;;;;;;;5038498;28;20029;-81
2022/04/22 05:15:11;;;;;;;24.15;14.68;;;;;;;;;;5021248;28;20032;-81
2022/04/22 05:17:40;;;;;;;29.88;16.23;;;;;;;;;;5040173;28;20045;-81
2022/04/22 05:20:07;;;;;;;30.10;16.40;;;;;;;;;;5040694;28;20025;-81
2022/04/22 05:22:32;;;;;;;32.10;18.10;;;;;;;;;;5044681;28;20530;-80
2022/04/22 05:24:57;;;;;;;36.90;17.65;;;;;;;;;;5047495;28;20037;-81
2022/04/22 05:27:23;;;;;;;29.92;16.75;;;;;;;;;;5030005;28;20092;-80
2022/04/22 05:32:38;;;;;;;32.58;17.73;;;;;;;;;;5047648;28;20060;-80
2022/04/22 05:35:05;;;;;;;34.50;17.50;;;;;;;;;;5049137;28;20686;-80
2022/04/22 05:37:43;;;;;;;28.92;17.08;;;;;;;;;;5051148;28;20053;-80
2022/04/22 05:40:10;;;;;;;28.83;15.48;;;;;;;;;;5050729;28;20025;-79
2022/04/22 05:42:38;;;;;;;32.92;17.42;;;;;;;;;;5053653;28;20111;-81
2022/04/22 05:45:05;;;;;;;31.30;17.40;;;;;;;;;;5062933;28;20026;-78
2022/04/22 05:47:31;;;;;;;31.35;18.02;;;;;;;;;;5053317;28;20025;-82
2022/04/22 05:49:56;;;;;;;34.33;18.17;;;;;;;;;;5052151;28;20105;-82
2022/04/22 05:52:21;;;;;;;30.42;17.63;;;;;;;;;;5051750;28;20029;-80
2022/04/22 05:54:47;;;;;;;27.90;16.83;;;;;;;;;;5052703;28;20025;-79
2022/04/22 05:57:12;;;;;;;28.92;17.38;;;;;;;;;;5052089;28;20030;-79
2022/04/22 05:59:38;;;;;;;30.33;16.48;;;;;;;;;;5051981;28;20026;-79
2022/04/22 06:02:05;;;;;;;28.15;17.15;;;;;;;;;;5050216;28;20119;-79
2022/04/22 06:04:30;;;;;;;30.27;16.45;;;;;;;;;;5048477;28;20037;-79
2022/04/22 06:06:55;;;;;;;28.15;17.35;;;;;;;;;;5049311;28;20017;-80
2022/04/22 06:12:05;;;;;;;25.90;15.77;;;;;;;;;;5052436;28;20044;-79
2022/04/22 06:14:30;;;;;;;25.75;16.23;;;;;;;;;;5061103;28;20033;-80
2022/04/22 06:16:56;;;;;;;29.52;16.70;;;;;;;;;;5050532;28;20033;-79
2022/04/22 06:19:21;;;;;;;25.63;14.77;;;;;;;;;;5049363;28;20033;-81
2022/04/22 06:21:47;;;;;;;29.15;14.90;;;;;;;;;;5047917;28;20085;-79
2022/04/22 06:24:12;;;;;;;32.13;17.92;;;;;;;;;;5043680;28;20028;-83
2022/04/22 06:26:38;;;;;;;27.10;15.93;;;;;;;;;;5040228;28;20121;-82
2022/04/22 06:29:03;;;;;;;25.83;15.80;;;;;;;;;;5041552;28;20025;-82
2022/04/22 06:31:29;;;;;;;24.90;14.85;;;;;;;;;;5043722;28;20063;-79
2022/04/22 06:33:56;;;;;;;24.77;14.50;;;;;;;;;;5046886;28;20029;-79
2022/04/22 06:36:27;;;;;;;25.23;15.57;;;;;;;;;;5031283;28;20112;-80
2022/04/22 06:38:58;;;;;;;29.58;15.85;;;;;;;;;;5048082;28;20021;-79
2022/04/22 06:46:55;;;;;;;20.10;13.40;;;;;;;;;;5035807;28;20040;-79
2022/04/22 06:49:21;;;;;;;20.15;12.90;;;;;;;;;;5035663;28;20021;-82
2022/04/22 06:51:46;;;;;;;18.63;13.18;;;;;;;;;;5017150;28;20018;-82
2022/04/22 06:54:12;;;;;;;21.17;12.95;;;;;;;;;;5035056;28;20025;-81
2022/04/22 06:56:39;;;;;;;20.88;13.60;;;;;;;;;;5038782;28;20053;-81
2022/04/22 06:59:05;;;;;;;18.10;12.32;;;;;;;;;;5023229;28;20112;-82
2022/04/22 07:01:31;;;;;;;21.05;13.07;;;;;;;;;;5038267;28;20103;-80
2022/04/22 07:03:57;;;;;;;18.83;12.90;;;;;;;;;;5020632;28;20037;-81
2022/04/22 07:06:23;;;;;;;21.42;12.77;;;;;;;;;;5036941;28;20032;-80
2022/04/22 07:08:49;;;;;;;18.10;13.50;;;;;;;;;;5029084;28;20017;-83
2022/04/22 07:11:25;;;;;;;21.30;13.43;;;;;;;;;;5036487;28;20029;-80
2022/04/22 07:13:55;;;;;;;16.83;12.65;;;;;;;;;;5038436;28;20029;-82
2022/04/22 07:16:21;;;;;;;16.13;11.98;;;;;;;;;;5036943;28;20030;-81
2022/04/22 07:18:47;;;;;;;16.90;11.85;;;;;;;;;;5039864;28;20179;-82
2022/04/22 07:21:13;;;;;;;19.48;13.18;;;;;;;;;;5040293;28;20026;-82
2022/04/22 07:23:38;;;;;;;16.45;12.57;;;;;;;;;;5038226;28;20152;-81
2022/04/22 07:26:09;;;;;;;20.77;13.82;;;;;;;;;;5049165;28;20033;-81
2022/04/22 07:28:37;;;;;;;17.40;12.82;;;;;;;;;;5017545;28;20025;-81
2022/04/22 07:31:03;;;;;;;18.58;12.45;;;;;;;;;;5034514;28;20055;-81
2022/04/22 07:33:30;;;;;;;21.20;13.27;;;;;;;;;;5040251;28;20142;-81
2022/04/22 07:35:55;;;;;;;19.42;12.50;;;;;;;;;;5039037;28;20036;-84
2022/04/22 07:38:21;;;;;;;18.58;12.88;;;;;;;;;;5042896;28;20033;-83
2022/04/22 07:40:50;;;;;;;23.40;13.27;;;;;;;;;;5026482;28;20036;-81
2022/04/22 07:48:45;;;;;;;18.00;13.20;;;;;;;;;;5054674;28;20116;-81
2022/04/22 07:51:10;;;;;;;18.00;12.70;;;;;;;;;;5040711;28;20084;-82
2022/04/22 07:53:36;;;;;;;21.23;12.90;;;;;;;;;;5021850;28;20388;-82
2022/04/22 07:56:06;;;;;;;16.25;11.05;;;;;;;;;;5040829;28;20029;-82
2022/04/22 07:58:32;;;;;;;21.65;12.68;;;;;;;;;;5030210;28;20056;-81
2022/04/22 08:00:58;;;;;;;16.40;11.82;;;;;;;;;;5040731;28;20083;-82
2022/04/22 08:03:23;;;;;;;21.45;11.68;;;;;;;;;;5039093;28;20029;-82
2022/04/22 08:05:49;;;;;;;15.85;11.23;;;;;;;;;;5038848;28;20115;-82
2022/04/22 08:08:14;;;;;;;15.73;11.27;;;;;;;;;;5038945;28;20036;-81
2022/04/22 08:10:39;;;;;;;16.33;11.75;;;;;;;;;;5044399;28;20029;-81
2022/04/22 08:13:05;;;;;;;17.85;11.75;;;;;;;;;;5019809;28;20033;-81
2022/04/22 08:15:35;;;;;;;17.52;11.55;;;;;;;;;;5019692;28;20030;-82
2022/04/22 08:18:01;;;;;;;16.02;11.65;;;;;;;;;;5016128;28;20087;-84
2022/04/22 08:20:27;;;;;;;17.23;11.55;;;;;;;;;;4995275;28;20476;-82
2022/04/22 08:22:52;;;;;;;18.65;12.02;;;;;;;;;;4999939;28;20099;-84
2022/04/22 08:25:18;;;;;;;18.85;12.23;;;;;;;;;;5024387;28;20033;-80
2022/04/22 08:27:45;;;;;;;18.10;11.90;;;;;;;;;;5007512;28;20021;-82
2022/04/22 08:30:11;;;;;;;17.92;10.65;;;;;;;;;;5022214;28;20026;-82
2022/04/22 08:32:37;;;;;;;16.00;11.02;;;;;;;;;;5022707;28;20103;-82
2022/04/22 08:35:03;;;;;;;15.98;11.32;;;;;;;;;;5015837;28;20052;-82
2022/04/22 08:37:29;;;;;;;21.58;11.38;;;;;;;;;;5011001;28;20026;-83
2022/04/22 08:39:55;;;;;;;16.70;11.65;;;;;;;;;;5014153;28;20036;-82
2022/04/22 08:42:24;;;;;;;14.13;10.27;;;;;;;;;;5016349;28;20097;-81
2022/04/22 08:44:51;;;;;;;16.55;10.60;;;;;;;;;;4995394;28;20129;-83
2022/04/22 08:50:06;;;;;;;12.95;9.88;;;;;;;;;;5013320;28;20048;-83
2022/04/22 08:52:34;;;;;;;14.13;10.40;;;;;;;;;;5019893;28;20064;-83
2022/04/22 08:55:04;;;;;;;15.77;11.57;;;;;;;;;;5023262;28;20034;-83
2022/04/22 08:57:30;;;;;;;18.88;11.15;;;;;;;;;;5020188;28;20025;-83
2022/04/22 09:00:05;;;;;;;14.73;10.63;;;;;;;;;;5016043;28;20022;-83
2022/04/22 09:02:30;;;;;;;14.38;10.50;;;;;;;;;;5014790;28;20137;-83
2022/04/22 09:04:56;;;;;;;15.65;10.20;;;;;;;;;;5014960;28;20034;-83
2022/04/22 09:07:26;;;;;;;19.13;10.50;;;;;;;;;;5014673;28;20033;-81
2022/04/22 09:09:51;;;;;;;13.60;10.00;;;;;;;;;;5015538;28;20032;-81
2022/04/22 09:12:22;;;;;;;13.70;10.25;;;;;;;;;;5026102;28;20045;-84
2022/04/22 09:14:49;;;;;;;17.88;10.13;;;;;;;;;;5044403;28;20057;-83
2022/04/22 09:17:29;;;;;;;12.88;8.93;;;;;;;;;;5043369;28;20037;-83
2022/04/22 09:19:57;;;;;;;12.48;8.85;;;;;;;;;;5042824;28;20041;-82
2022/04/22 09:22:27;;;;;;;16.15;10.07;;;;;;;;;;5043043;28;20029;-82
2022/04/22 09:24:57;;;;;;;17.35;11.98;;;;;;;;;;5042219;28;20033;-81
2022/04/22 09:27:42;;;;;;;16.65;11.32;;;;;;;;;;5032980;28;20025;-81
2022/04/22 09:30:09;;;;;;;13.77;10.00;;;;;;;;;;5059676;28;20394;-81
2022/04/22 09:32:39;;;;;;;16.20;11.18;;;;;;;;;;5040327;28;20040;-83
2022/04/22 09:35:11;;;;;;;17.90;10.73;;;;;;;;;;5041582;28;20025;-84
2022/04/22 09:43:34;;;;;;;15.45;10.18;;;;;;;;;;5047121;28;20036;-83
2022/04/22 09:46:00;;;;;;;15.68;9.48;;;;;;;;;;5044824;28;20021;-83
2022/04/22 09:48:25;;;;;;;13.40;9.32;;;;;;;;;;5033280;28;20361;-82
2022/04/22 09:50:55;;;;;;;16.02;10.35;;;;;;;;;;5035075;28;20032;-82
2022/04/22 09:53:34;;;;;;;13.38;10.23;;;;;;;;;;5027917;28;20021;-82
2022/04/22 09:56:09;;;;;;;13.05;10.02;;;;;;;;;;5040989;28;20057;-83
2022/04/22 09:58:36;;;;;;;13.80;10.48;;;;;;;;;;5040921;28;20048;-82
2022/04/22 10:01:04;;;;;;;16.40;10.05;;;;;;;;;;5037489;28;20048;-82
2022/04/22 10:03:35;;;;;;;16.50;9.73;;;;;;;;;;5022346;28;20032;-82
2022/04/22 10:06:01;;;;;;;13.85;9.20;;;;;;;;;;5041978;28;20029;-81
2022/04/22 10:08:30;;;;;;;19.63;10.75;;;;;;;;;;5036102;28;20026;-81
2022/04/22 10:11:00;;;;;;;13.35;9.25;;;;;;;;;;5046902;28;20025;-80
2022/04/22 10:13:41;;;;;;;18.08;10.35;;;;;;;;;;5043738;28;20035;-82
2022/04/22 10:16:10;;;;;;;15.97;10.40;;;;;;;;;;5042401;28;20029;-84
2022/04/22 10:18:38;;;;;;;15.98;10.20;;;;;;;;;;5041707;28;20036;-83
2022/04/22 10:21:03;;;;;;;13.55;9.32;;;;;;;;;;5040733;28;20104;-83
2022/04/22 10:23:30;;;;;;;14.85;9.48;;;;;;;;;;5039754;28;20122;-83
2022/04/22 10:25:59;;;;;;;18.00;9.70;;;;;;;;;;5037054;28;20037;-82
2022/04/22 10:28:27;;;;;;;15.80;10.40;;;;;;;;;;5041167;28;20515;-82
2022/04/22 10:30:54;;;;;;;13.15;9.20;;;;;;;;;;5019577;28;20025;-83
2022/04/22 10:33:27;;;;;;;21.83;10.68;;;;;;;;;;5021291;28;20032;-83
2022/04/22 10:35:59;;;;;;;15.82;10.15;;;;;;;;;;5041252;28;20033;-83
2022/04/22 10:38:37;;;;;;;15.30;10.03;;;;;;;;;;5038268;28;20087;-82
2022/04/22 10:41:05;;;;;;;12.98;8.95;;;;;;;;;;5031936;28;20278;-82
2022/04/22 10:43:31;;;;;;;16.52;9.32;;;;;;;;;;5018086;28;20036;-81
2022/04/22 10:48:41;;;;;;;15.45;9.45;;;;;;;;;;5037283;28;20500;-81
2022/04/22 10:51:11;;;;;;;13.18;9.13;;;;;;;;;;5035477;28;20033;-79
2022/04/22 10:53:48;;;;;;;17.20;10.25;;;;;;;;;;5033183;28;20045;-82
2022/04/22 10:56:26;;;;;;;13.68;10.20;;;;;;;;;;5036597;28;20029;-81
2022/04/22 10:59:20;;;;;;;13.75;9.27;;;;;;;;;;5035897;28;20120;-82
2022/04/22 11:01:46;;;;;;;18.70;10.15;;;;;;;;;;5036595;28;20022;-82
2022/04/22 11:04:18;;;;;;;16.48;9.93;;;;;;;;;;5038525;28;20043;-82
2022/04/22 11:06:44;;;;;;;17.42;9.10;;;;;;;;;;5037887;28;20034;-83
2022/04/22 11:09:09;;;;;;;14.85;9.30;;;;;;;;;;5017873;28;20151;-82
2022/04/22 11:11:41;;;;;;;14.95;9.73;;;;;;;;;;5028471;28;20031;-80
2022/04/22 11:14:18;;;;;;;15.10;8.95;;;;;;;;;;5048609;28;20049;-81
2022/04/22 11:16:43;;;;;;;13.77;10.15;;;;;;;;;;5038895;28;20381;-81
2022/04/22 11:19:18;;;;;;;17.48;10.95;;;;;;;;;;5037104;28;20037;-80
2022/04/22 11:21:45;;;;;;;13.95;9.30;;;;;;;;;;5036181;28;20022;-83
2022/04/22 11:24:15;;;;;;;17.67;10.82;;;;;;;;;;5036819;28;20546;-83
2022/04/22 11:26:42;;;;;;;14.38;9.23;;;;;;;;;;5036751;28;20469;-81
2022/04/22 11:29:09;;;;;;;13.55;9.30;;;;;;;;;;5052016;28;20364;-82
2022/04/22 11:31:35;;;;;;;13.68;9.15;;;;;;;;;;5036091;28;20021;-82
2022/04/22 11:34:05;;;;;;;12.63;8.95;;;;;;;;;;5019265;28;20040;-82
2022/04/22 11:36:42;;;;;;;15.52;10.00;;;;;;;;;;5037846;28;20460;-83
2022/04/22 11:39:13;;;;;;;17.77;10.60;;;;;;;;;;5023446;28;20076;-84
2022/04/22 11:41:50;;;;;;;13.77;9.55;;;;;;;;;;5030248;28;20025;-84
2022/04/22 11:44:20;;;;;;;15.70;9.98;;;;;;;;;;5027982;28;20127;-84
2022/04/22 11:46:46;;;;;;;14.75;9.90;;;;;;;;;;5042466;28;20025;-84
2022/04/22 11:49:11;;;;;;;13.18;8.77;;;;;;;;;;5025154;28;20029;-84
2022/04/22 11:51:37;;;;;;;14.50;8.80;;;;;;;;;;5042253;28;20030;-84
2022/04/22 11:54:03;;;;;;;18.00;10.10;;;;;;;;;;5042167;28;20637;-84
2022/04/22 11:56:29;;;;;;;15.57;9.82;;;;;;;;;;5040198;28;20106;-83
2022/04/22 11:58:56;;;;;;;12.75;8.88;;;;;;;;;;5035045;28;20026;-84
2022/04/22 12:06:58;;;;;;;13.48;9.30;;;;;;;;;;5039654;28;20185;-82
2022/04/22 12:09:24;;;;;;;13.50;8.50;;;;;;;;;;5039236;28;20190;-82
2022/04/22 12:11:50;;;;;;;11.60;8.05;;;;;;;;;;5047338;28;20025;-82
2022/04/22 12:14:24;;;;;;;75.82;10.65;;;;;;;;;;5044845;28;20080;-81
2022/04/22 12:16:59;;;;;;;18.58;8.27;;;;;;;;;;5041137;28;20029;-81
2022/04/22 12:19:26;;;;;;;12.70;7.30;;;;;;;;;;5038678;28;20138;-82
2022/04/22 12:21:52;;;;;;;10.20;7.35;;;;;;;;;;5057532;28;20029;-82
2022/04/22 12:24:17;;;;;;;13.88;8.15;;;;;;;;;;5035608;28;20059;-82
2022/04/22 12:26:46;;;;;;;9.93;7.85;;;;;;;;;;5040428;28;20058;-84
2022/04/22 12:32:36;;;;;;;14.02;8.05;;;;;;;;;;5043303;28;20059;-83
2022/04/22 12:35:18;;;;;;;11.68;8.07;;;;;;;;;;5041155;28;20029;-82
2022/04/22 12:37:50;;;;;;;;;;;;;;;;;;5040826;28;20025;-82
2022/04/22 12:40:18;;;;;;;10.93;7.20;;;;;;;;;;5037994;28;20112;-83
2022/04/22 12:42:43;;;;;;;11.25;7.70;;;;;;;;;;5043974;28;20030;-82
2022/04/22 12:54:05;;;;;;;12.53;7.73;;;;;;;;;;5038046;28;20106;-83
2022/04/22 12:56:31;;;;;;;16.73;10.38;;;;;;;;;;5020217;28;20030;-83
2022/04/22 12:59:02;;;;;;;14.23;7.20;;;;;;;;;;5039216;28;20029;-83
2022/04/22 13:01:35;;;;;;;16.13;8.77;;;;;;;;;;5039482;28;20085;-86
2022/04/22 13:04:00;;;;;;;9.73;7.53;;;;;;;;;;5020725;28;20037;-84
2022/04/22 13:06:42;;;;;;;13.25;8.23;;;;;;;;;;5029925;28;20032;-82
2022/04/22 13:09:09;;;;;;;9.55;7.47;;;;;;;;;;5021750;28;20029;-84
2022/04/22 13:11:34;;;;;;;11.38;7.55;;;;;;;;;;5021289;28;20029;-83
2022/04/22 13:14:00;;;;;;;9.40;6.93;;;;;;;;;;5018497;28;20032;-82
2022/04/22 13:16:26;;;;;;;9.77;6.68;;;;;;;;;;5021735;28;20048;-82
2022/04/22 13:18:52;;;;;;;9.35;6.32;;;;;;;;;;5029405;28;20030;-82
2022/04/22 13:21:17;;;;;;;12.35;7.32;;;;;;;;;;5025550;28;20041;-82
2022/04/22 13:23:42;;;;;;;15.77;7.60;;;;;;;;;;5007617;28;20030;-82
2022/04/22 13:26:08;;;;;;;11.30;6.72;;;;;;;;;;5040512;28;20017;-82
2022/04/22 13:28:33;;;;;;;12.23;7.20;;;;;;;;;;5042367;28;20082;-82
2022/04/22 13:30:58;;;;;;;12.40;7.53;;;;;;;;;;5037714;28;20096;-83
2022/04/22 13:33:25;;;;;;;13.68;7.20;;;;;;;;;;5036756;28;20109;-81
2022/04/22 13:35:51;;;;;;;19.17;8.23;;;;;;;;;;5037508;28;20484;-83
2022/04/22 13:38:16;;;;;;;11.80;7.93;;;;;;;;;;5038211;28;20059;-84
2022/04/22 13:40:42;;;;;;;10.55;7.10;;;;;;;;;;5033118;28;20033;-81
2022/04/22 13:43:07;;;;;;;9.57;7.22;;;;;;;;;;5045230;28;20025;-80
2022/04/22 13:53:45;;;;;;;10.05;7.57;;;;;;;;;;5048312;28;20045;-81
2022/04/22 13:56:11;;;;;;;10.23;7.45;;;;;;;;;;5054060;28;20376;-81
2022/04/22 13:58:39;;;;;;;10.15;7.25;;;;;;;;;;5047350;28;20049;-82
2022/04/22 14:01:04;;;;;;;10.82;7.53;;;;;;;;;;5044446;28;20037;-81
2022/04/22 14:03:31;;;;;;;9.60;7.05;;;;;;;;;;5061394;28;20059;-83
2022/04/22 14:05:56;;;;;;;21.42;7.03;;;;;;;;;;5053953;28;20039;-83
2022/04/22 14:08:21;;;;;;;11.48;7.00;;;;;;;;;;5027829;28;20033;-83
2022/04/22 14:10:47;;;;;;;10.00;6.85;;;;;;;;;;5042431;28;20053;-82
2022/04/22 14:13:15;;;;;;;15.70;7.50;;;;;;;;;;5049997;28;20078;-82
2022/04/22 14:15:43;;;;;;;12.20;6.88;;;;;;;;;;5025084;28;20029;-82
2022/04/22 14:18:09;;;;;;;8.98;6.97;;;;;;;;;;5037889;28;20488;-82
2022/04/22 14:20:35;;;;;;;11.27;7.90;;;;;;;;;;5029009;28;20065;-82
2022/04/22 14:23:00;;;;;;;7.78;6.30;;;;;;;;;;5038127;28;20032;-83
2022/04/22 14:25:26;;;;;;;11.88;7.32;;;;;;;;;;5022915;28;20021;-85
2022/04/22 14:27:51;;;;;;;10.73;7.38;;;;;;;;;;5018323;28;20025;-84
2022/04/22 14:30:17;;;;;;;7.80;6.25;;;;;;;;;;5032638;28;20028;-82
2022/04/22 14:32:54;;;;;;;8.98;6.65;;;;;;;;;;5029438;28;20056;-81
2022/04/22 14:35:20;;;;;;;11.77;6.50;;;;;;;;;;5042127;28;20060;-83
2022/04/22 14:37:45;;;;;;;10.00;6.60;;;;;;;;;;5040391;28;20029;-82
2022/04/22 14:40:10;;;;;;;9.23;6.22;;;;;;;;;;5023229;28;20025;-83
2022/04/22 14:42:36;;;;;;;11.75;6.03;;;;;;;;;;5035757;28;20026;-82
2022/04/22 14:45:01;;;;;;;7.80;6.28;;;;;;;;;;5015442;28;20106;-82
2022/04/22 14:47:27;;;;;;;8.82;5.38;;;;;;;;;;5035997;28;20064;-82
2022/04/22 14:49:52;;;;;;;9.63;6.78;;;;;;;;;;5022972;28;20024;-82
2022/04/22 14:52:20;;;;;;;9.27;6.05;;;;;;;;;;5027664;28;20033;-80
2022/04/22 14:54:46;;;;;;;8.13;5.82;;;;;;;;;;5031364;28;20049;-81
2022/04/22 14:57:11;;;;;;;6.55;5.40;;;;;;;;;;5039953;28;20021;-82
2022/04/22 14:59:36;;;;;;;9.05;5.63;;;;;;;;;;5039156;28;20558;-83
2022/04/22 15:02:02;;;;;;;7.25;5.80;;;;;;;;;;5039356;28;20055;-82
2022/04/22 15:04:28;;;;;;;11.65;5.93;;;;;;;;;;5039423;28;20040;-81
2022/04/22 15:06:53;;;;;;;7.70;5.60;;;;;;;;;;5046848;28;20013;-81
2022/04/22 15:09:19;;;;;;;7.40;5.72;;;;;;;;;;5045257;28;20025;-81
2022/04/22 15:11:44;;;;;;;7.03;5.10;;;;;;;;;;5053359;28;20048;-80
2022/04/22 15:14:10;;;;;;;8.98;5.30;;;;;;;;;;5020017;28;20029;-82
2022/04/22 15:16:36;;;;;;;8.20;5.90;;;;;;;;;;5026085;28;20247;-80
2022/04/22 15:24:32;;;;;;;7.85;4.95;;;;;;;;;;5008214;28;20181;-81
2022/04/22 15:26:58;;;;;;;6.68;4.60;;;;;;;;;;5026224;28;20033;-80
2022/04/22 15:29:25;;;;;;;10.40;5.28;;;;;;;;;;5023563;28;20038;-81
2022/04/22 15:34:52;;;;;;;9.13;5.00;;;;;;;;;;5036608;28;20049;-80
2022/04/22 15:37:17;;;;;;;8.27;5.47;;;;;;;;;;5040777;28;20033;-81
2022/04/22 15:39:45;;;;;;;6.28;4.95;;;;;;;;;;5044816;28;20018;-82
2022/04/22 15:42:11;;;;;;;6.60;4.40;;;;;;;;;;5051486;28;20445;-82
2022/04/22 15:44:44;;;;;;;6.32;4.70;;;;;;;;;;5030496;28;20038;-82
2022/04/22 15:47:09;;;;;;;7.47;4.80;;;;;;;;;;5021893;28;20104;-82
2022/04/22 15:49:35;;;;;;;9.07;4.88;;;;;;;;;;5022654;28;20069;-81